VCBIVRMM

Guest
Details From VCBI - BANDARANAIKE INTL COLOMBO
To VRMM - MALE INTL
Flight Number -
Tags decoded
Created
Modified
Stats Distance 495 nm / 916 km
Max Altitude 0 ft / 0 m
Waypoints 5
Social Downloads 3
Likes 0
Share

Download

Looking for another format? Having issues loading an existing format? Contact us
Advertisement - Login to hide

Notes

Requested: VCBI SUPSA GOKAN ATISA RAXON VRMM

Route

VCBI SUPSA ATISA RAXON VRMM

ID Type Via Altitude (ft/m) Position (lat/lon) Dist (leg/tot) Name
O VCBI APT - 0 / 0 7.18075 / 79.88412 - / 0 nm BANDARANAIKE INTL COLOMBO
SUPSA FIX - 0 / 0 6.78367 / 79.05223 55 / 55 nm
ATISA FIX - 0 / 0 3.35611 / 73.52722 389 / 444 nm
RAXON FIX - 0 / 0 3.94217 / 73.52967 35 / 479 nm
O VRMM APT - 0 / 0 4.19183 / 73.52913 14 / 494 nm MALE INTL

Altitude Profile

Advertisement - Login to hide

Weather


0- 5 10 15 20 25 30 35+ Temperature / °C

Clouds and Precipitation
Forecast for 2021-03-22 12:00 UTC. Updated 2 months ago

Ground ~20,000 ft ~40,000 ft Winds

VCBI

Details ICAO VCBI (CMB)
Name Bandaranaike International
Region Sri Lanka
Timezone Asia/Colombo (UTC+5.5)
Stats Elevation 30 ft / 9 m (AMSL)
Location 7.181250° 79.883800°
Runways 1
Magnetic Variation 1.825° W

METAR

VCBI 110410Z 21008KT 170V260 9999 FEW016 FEW018CB 31/24 Q1010 NOSIG RMK W

Decode

TAF

TAF VCBI 102300Z 1100/1206 VRB05KT 9999 FEW018 TX32/1108Z TN26/1200Z PROB30 TEMPO 1100/1103 1110/1115 7000 -TSRA/SHRA SCT017 FEW020CB BECMG 1105/1107 23010KT BECMG 1112/1114 VRB05KT

Decode

Departure Runways

ID Width Length Bearing (true/mag) Surface Threshold Overrun Markings Lighting
04 148 ft / 45 m 11,001 ft / 3,353 m 37.22° / 39.04° ASPHALT 0 ft / 0 m 407 ft / 124 m PREC-APP CENTERLINE EDGE THRESHOLD ALSF-I REIL-OMNI
22 148 ft / 45 m 11,001 ft / 3,353 m 217.22° / 219.04° ASPHALT 0 ft / 0 m 390 ft / 119 m PREC-APP CENTERLINE EDGE THRESHOLD ALSF-II TDZ REIL-OMNI

VRMM

Details ICAO VRMM (MLE)
Name Velana International
Region Maldives
Timezone Indian/Maldives (UTC+5.0)
Stats Elevation 5 ft / 2 m (AMSL)
Location 4.191670° 73.529200°
Runways 1
Magnetic Variation 2.576° W

METAR

VRMM 110400Z 25014KT 7000 -RA FEW010 SCT016TCU OVC090 28/26 Q1010 TEMPO 4000 TSRA

Decode

TAF

TAF VRMM 102300Z 1100/1206 19010KT 9999 SCT017 BKN110 TEMPO 1100/1106 23015G33KT 4000 TSRA SCT017CB

Decode

Destination Runways

ID Width Length Bearing (true/mag) Surface Threshold Overrun Markings Lighting
18 148 ft / 45 m 10,558 ft / 3,218 m 179.06° / 181.64° ASPHALT 331 ft / 101 m 0 ft / 0 m PREC-APP EDGE THRESHOLD REIL-OMNI
36 148 ft / 45 m 10,558 ft / 3,218 m 359.06° / 1.64° ASPHALT 951 ft / 290 m 59 ft / 18 m PREC-APP EDGE THRESHOLD SALS REIL-OMNI

Approach Navaids

Runway Type Ident Frequency Range Bearing (true/mag) Slope Elevation
36 DME IML 108.70 MHz 18 nm / 33 km - - 22 ft / 7 m (AMSL)
36 LOC-ILS IML 108.70 MHz 18 nm / 33 km 359.09° / 1.67 ° - 3 ft / 1 m (AMSL)
36 GS IML 108.70 MHz 10 nm / 19 km 359.09° / 1.67 ° 3.00° 3 ft / 1 m (AMSL)

Popular Alternatives